Página principal
METAR-TAF:

METAR-TAF

Aeroportos :

San José de Chiquitos, Bolívia

latitude: 17-48S, longitude: 060-44W, altura: 284 m

Observação actual do tempo

O boletim foi feito há 15 minutos, às 14:00 UTC
Vento calmo
Temperatura 30°C
Humidade 75%
Pressão 1019 hPa
Visibilidade 10 km ou mais
Poucas nuvensa uma altura de 1700 ft

METAR: SLJE 261400Z 00000KT 9999 FEW017 30/25 Q1019

Hora: 10:15 (14:15 UTC)


TAF: em falta

Observações e previsões do tempo de mais de 4000 aeroportos (mensagens METAR e TAF).

As estações disponíveis são os pontos amarelos e vermelhos sobre o mapa.

Mova o rato sobre o mapa para ver o nome da estação.

Depois clique no ponto para visualizar as observações e previsões meteorológicas.

Para alterar o mapa : clique nos botões verdes com uma cruz preta para aumentar o zoom; no botão verde com uma pitada de zoom; ou nas setas verdes para mapas adjacentes.


METAR-TAF: